sensor_id;sensor_type;location;lat;lon;timestamp;P1;durP1;ratioP1;P2;durP2;ratioP2
52858;SDS011;38721;53.098;6.596;2022-11-15T00:01:20;30.52;;;20.48;;
52858;SDS011;38721;53.098;6.596;2022-11-15T00:03:52;28.02;;;20.73;;
52858;SDS011;38721;53.098;6.596;2022-11-15T00:06:24;29.60;;;20.92;;
52858;SDS011;38721;53.098;6.596;2022-11-15T00:08:52;30.73;;;21.60;;
52858;SDS011;38721;53.098;6.596;2022-11-15T00:11:18;32.92;;;20.70;;
52858;SDS011;38721;53.098;6.596;2022-11-15T00:13:44;29.83;;;21.05;;
52858;SDS011;38721;53.098;6.596;2022-11-15T00:16:12;31.00;;;21.60;;
52858;SDS011;38721;53.098;6.596;2022-11-15T00:18:38;30.52;;;20.83;;
52858;SDS011;38721;53.098;6.596;2022-11-15T00:21:05;31.13;;;20.45;;
52858;SDS011;38721;53.098;6.596;2022-11-15T00:23:33;31.73;;;21.63;;
52858;SDS011;38721;53.098;6.596;2022-11-15T00:25:58;33.72;;;21.90;;
52858;SDS011;38721;53.098;6.596;2022-11-15T00:28:25;31.83;;;22.17;;
52858;SDS011;38721;53.098;6.596;2022-11-15T00:30:59;35.33;;;21.10;;
52858;SDS011;38721;53.098;6.596;2022-11-15T00:33:33;33.28;;;21.75;;
52858;SDS011;38721;53.098;6.596;2022-11-15T00:36:05;32.55;;;22.25;;
52858;SDS011;38721;53.098;6.596;2022-11-15T00:38:34;33.05;;;22.90;;
52858;SDS011;38721;53.098;6.596;2022-11-15T00:41:09;33.65;;;23.05;;
52858;SDS011;38721;53.098;6.596;2022-11-15T00:43:41;30.90;;;21.90;;
52858;SDS011;38721;53.098;6.596;2022-11-15T00:46:08;31.08;;;21.38;;
52858;SDS011;38721;53.098;6.596;2022-11-15T00:48:35;31.83;;;22.35;;
52858;SDS011;38721;53.098;6.596;2022-11-15T00:51:04;34.22;;;22.17;;
52858;SDS011;38721;53.098;6.596;2022-11-15T00:53:30;33.20;;;22.02;;
52858;SDS011;38721;53.098;6.596;2022-11-15T00:55:55;30.50;;;21.27;;
52858;SDS011;38721;53.098;6.596;2022-11-15T00:58:21;33.30;;;22.65;;
52858;SDS011;38721;53.098;6.596;2022-11-15T01:00:47;31.90;;;22.02;;
52858;SDS011;38721;53.098;6.596;2022-11-15T01:03:12;32.05;;;22.00;;
52858;SDS011;38721;53.098;6.596;2022-11-15T01:05:38;31.33;;;23.08;;
52858;SDS011;38721;53.098;6.596;2022-11-15T01:08:04;31.05;;;20.50;;
52858;SDS011;38721;53.098;6.596;2022-11-15T01:10:30;31.58;;;22.50;;
52858;SDS011;38721;53.098;6.596;2022-11-15T01:12:55;30.75;;;20.98;;
52858;SDS011;38721;53.098;6.596;2022-11-15T01:15:22;33.83;;;22.00;;
52858;SDS011;38721;53.098;6.596;2022-11-15T01:17:50;30.83;;;21.30;;
52858;SDS011;38721;53.098;6.596;2022-11-15T01:20:19;32.65;;;21.75;;
52858;SDS011;38721;53.098;6.596;2022-11-15T01:22:44;31.98;;;21.45;;
52858;SDS011;38721;53.098;6.596;2022-11-15T01:25:13;34.67;;;22.70;;
52858;SDS011;38721;53.098;6.596;2022-11-15T01:27:42;33.33;;;22.73;;
52858;SDS011;38721;53.098;6.596;2022-11-15T01:30:08;32.63;;;22.58;;
52858;SDS011;38721;53.098;6.596;2022-11-15T01:32:34;34.67;;;22.85;;
52858;SDS011;38721;53.098;6.596;2022-11-15T01:34:59;33.83;;;21.70;;
52858;SDS011;38721;53.098;6.596;2022-11-15T01:37:25;31.95;;;21.83;;
52858;SDS011;38721;53.098;6.596;2022-11-15T01:39:51;33.47;;;22.63;;
52858;SDS011;38721;53.098;6.596;2022-11-15T01:42:22;33.30;;;22.90;;
52858;SDS011;38721;53.098;6.596;2022-11-15T01:44:48;31.65;;;22.30;;
52858;SDS011;38721;53.098;6.596;2022-11-15T01:49:56;28.98;;;20.50;;
52858;SDS011;38721;53.098;6.596;2022-11-15T01:52:31;32.60;;;21.77;;
52858;SDS011;38721;53.098;6.596;2022-11-15T01:55:06;31.27;;;20.65;;
52858;SDS011;38721;53.098;6.596;2022-11-15T01:57:50;32.58;;;21.42;;
52858;SDS011;38721;53.098;6.596;2022-11-15T02:00:21;33.20;;;21.27;;
52858;SDS011;38721;53.098;6.596;2022-11-15T02:02:47;32.28;;;19.67;;
52858;SDS011;38721;53.098;6.596;2022-11-15T02:05:13;29.88;;;20.33;;
52858;SDS011;38721;53.098;6.596;2022-11-15T02:07:41;31.05;;;19.35;;
52858;SDS011;38721;53.098;6.596;2022-11-15T02:10:09;33.47;;;20.17;;
52858;SDS011;38721;53.098;6.596;2022-11-15T02:12:37;30.80;;;20.50;;
52858;SDS011;38721;53.098;6.596;2022-11-15T02:15:04;34.78;;;22.60;;
52858;SDS011;38721;53.098;6.596;2022-11-15T02:29:08;33.28;;;20.23;;
52858;SDS011;38721;53.098;6.596;2022-11-15T02:31:41;34.25;;;21.42;;
52858;SDS011;38721;53.098;6.596;2022-11-15T02:40:37;34.65;;;21.33;;
52858;SDS011;38721;53.098;6.596;2022-11-15T02:46:24;38.85;;;22.25;;
52858;SDS011;38721;53.098;6.596;2022-11-15T02:49:33;35.85;;;21.60;;
52858;SDS011;38721;53.098;6.596;2022-11-15T02:52:02;37.95;;;22.58;;
52858;SDS011;38721;53.098;6.596;2022-11-15T02:54:32;40.95;;;21.80;;
52858;SDS011;38721;53.098;6.596;2022-11-15T02:57:05;37.97;;;21.88;;
52858;SDS011;38721;53.098;6.596;2022-11-15T03:10:25;36.03;;;21.60;;
52858;SDS011;38721;53.098;6.596;2022-11-15T03:13:00;34.95;;;22.15;;
52858;SDS011;38721;53.098;6.596;2022-11-15T03:15:34;33.67;;;21.17;;
52858;SDS011;38721;53.098;6.596;2022-11-15T03:18:18;38.28;;;21.65;;
52858;SDS011;38721;53.098;6.596;2022-11-15T03:21:01;36.55;;;22.60;;
52858;SDS011;38721;53.098;6.596;2022-11-15T03:23:30;38.33;;;22.20;;
52858;SDS011;38721;53.098;6.596;2022-11-15T03:25:56;37.38;;;21.75;;
52858;SDS011;38721;53.098;6.596;2022-11-15T03:28:32;42.42;;;22.42;;
52858;SDS011;38721;53.098;6.596;2022-11-15T03:31:02;33.45;;;21.33;;
52858;SDS011;38721;53.098;6.596;2022-11-15T03:33:50;36.90;;;21.45;;
52858;SDS011;38721;53.098;6.596;2022-11-15T03:36:18;35.63;;;21.60;;
52858;SDS011;38721;53.098;6.596;2022-11-15T03:38:46;37.80;;;21.70;;
52858;SDS011;38721;53.098;6.596;2022-11-15T03:44:10;40.80;;;22.38;;
52858;SDS011;38721;53.098;6.596;2022-11-15T03:49:35;42.70;;;23.27;;
52858;SDS011;38721;53.098;6.596;2022-11-15T03:52:03;41.70;;;23.55;;
52858;SDS011;38721;53.098;6.596;2022-11-15T03:54:30;42.28;;;23.13;;
52858;SDS011;38721;53.098;6.596;2022-11-15T03:56:56;43.15;;;23.83;;
52858;SDS011;38721;53.098;6.596;2022-11-15T03:59:24;50.35;;;25.58;;
52858;SDS011;38721;53.098;6.596;2022-11-15T04:01:50;49.38;;;23.92;;
52858;SDS011;38721;53.098;6.596;2022-11-15T04:04:18;47.78;;;24.23;;
52858;SDS011;38721;53.098;6.596;2022-11-15T04:06:44;47.92;;;24.10;;
52858;SDS011;38721;53.098;6.596;2022-11-15T04:09:10;53.00;;;26.00;;
52858;SDS011;38721;53.098;6.596;2022-11-15T04:11:36;52.00;;;25.27;;
52858;SDS011;38721;53.098;6.596;2022-11-15T04:14:04;58.47;;;25.98;;
52858;SDS011;38721;53.098;6.596;2022-11-15T04:16:32;52.60;;;26.08;;
52858;SDS011;38721;53.098;6.596;2022-11-15T04:18:58;62.53;;;26.55;;
52858;SDS011;38721;53.098;6.596;2022-11-15T04:21:42;58.97;;;26.60;;
52858;SDS011;38721;53.098;6.596;2022-11-15T04:24:30;67.53;;;28.08;;
52858;SDS011;38721;53.098;6.596;2022-11-15T04:26:55;56.92;;;27.70;;
52858;SDS011;38721;53.098;6.596;2022-11-15T04:29:21;61.70;;;28.15;;
52858;SDS011;38721;53.098;6.596;2022-11-15T04:31:59;57.80;;;28.05;;
52858;SDS011;38721;53.098;6.596;2022-11-15T04:34:25;57.53;;;28.10;;
52858;SDS011;38721;53.098;6.596;2022-11-15T04:36:53;59.72;;;28.42;;
52858;SDS011;38721;53.098;6.596;2022-11-15T04:39:37;69.45;;;27.63;;
52858;SDS011;38721;53.098;6.596;2022-11-15T04:42:07;60.20;;;27.67;;
52858;SDS011;38721;53.098;6.596;2022-11-15T04:44:33;68.88;;;29.33;;
52858;SDS011;38721;53.098;6.596;2022-11-15T04:46:59;66.50;;;29.98;;
52858;SDS011;38721;53.098;6.596;2022-11-15T04:49:28;57.50;;;26.35;;
52858;SDS011;38721;53.098;6.596;2022-11-15T04:51:54;65.60;;;27.42;;
52858;SDS011;38721;53.098;6.596;2022-11-15T04:54:24;57.78;;;25.17;;
52858;SDS011;38721;53.098;6.596;2022-11-15T04:56:50;66.10;;;28.85;;
52858;SDS011;38721;53.098;6.596;2022-11-15T04:59:16;55.85;;;27.33;;
52858;SDS011;38721;53.098;6.596;2022-11-15T05:01:41;67.72;;;27.95;;
52858;SDS011;38721;53.098;6.596;2022-11-15T05:04:07;68.30;;;29.17;;
52858;SDS011;38721;53.098;6.596;2022-11-15T05:06:50;73.90;;;30.13;;
52858;SDS011;38721;53.098;6.596;2022-11-15T05:09:17;79.00;;;32.03;;
52858;SDS011;38721;53.098;6.596;2022-11-15T05:11:53;78.70;;;30.80;;
52858;SDS011;38721;53.098;6.596;2022-11-15T05:14:18;72.78;;;30.83;;
52858;SDS011;38721;53.098;6.596;2022-11-15T05:16:50;72.00;;;31.05;;
52858;SDS011;38721;53.098;6.596;2022-11-15T05:19:16;80.55;;;32.10;;
52858;SDS011;38721;53.098;6.596;2022-11-15T05:21:44;84.45;;;33.45;;
52858;SDS011;38721;53.098;6.596;2022-11-15T05:24:10;88.63;;;33.75;;
52858;SDS011;38721;53.098;6.596;2022-11-15T05:26:36;80.72;;;32.83;;
52858;SDS011;38721;53.098;6.596;2022-11-15T05:29:02;89.03;;;35.33;;
52858;SDS011;38721;53.098;6.596;2022-11-15T05:31:28;88.03;;;34.08;;
52858;SDS011;38721;53.098;6.596;2022-11-15T05:33:56;92.88;;;36.03;;
52858;SDS011;38721;53.098;6.596;2022-11-15T05:36:36;91.78;;;35.70;;
52858;SDS011;38721;53.098;6.596;2022-11-15T05:39:04;99.10;;;34.95;;
52858;SDS011;38721;53.098;6.596;2022-11-15T05:41:34;91.93;;;35.72;;
52858;SDS011;38721;53.098;6.596;2022-11-15T05:44:01;100.68;;;36.28;;
52858;SDS011;38721;53.098;6.596;2022-11-15T05:46:32;93.95;;;36.05;;
52858;SDS011;38721;53.098;6.596;2022-11-15T05:49:02;101.43;;;37.63;;
52858;SDS011;38721;53.098;6.596;2022-11-15T05:51:31;105.60;;;38.78;;
52858;SDS011;38721;53.098;6.596;2022-11-15T05:53:57;107.32;;;40.50;;
52858;SDS011;38721;53.098;6.596;2022-11-15T05:56:25;107.47;;;38.22;;
52858;SDS011;38721;53.098;6.596;2022-11-15T05:58:53;110.50;;;40.78;;
52858;SDS011;38721;53.098;6.596;2022-11-15T06:01:21;103.55;;;39.80;;
52858;SDS011;38721;53.098;6.596;2022-11-15T06:03:48;111.50;;;41.47;;
52858;SDS011;38721;53.098;6.596;2022-11-15T06:06:13;104.45;;;39.72;;
52858;SDS011;38721;53.098;6.596;2022-11-15T06:08:39;114.50;;;43.25;;
52858;SDS011;38721;53.098;6.596;2022-11-15T06:11:05;105.03;;;41.85;;
52858;SDS011;38721;53.098;6.596;2022-11-15T06:13:34;102.50;;;41.67;;
52858;SDS011;38721;53.098;6.596;2022-11-15T06:16:00;100.93;;;41.40;;
52858;SDS011;38721;53.098;6.596;2022-11-15T06:18:26;98.13;;;40.95;;
52858;SDS011;38721;53.098;6.596;2022-11-15T06:20:52;94.03;;;40.83;;
52858;SDS011;38721;53.098;6.596;2022-11-15T06:23:26;89.47;;;37.33;;
52858;SDS011;38721;53.098;6.596;2022-11-15T06:25:57;85.68;;;35.45;;
52858;SDS011;38721;53.098;6.596;2022-11-15T06:28:23;84.82;;;36.92;;
52858;SDS011;38721;53.098;6.596;2022-11-15T06:30:49;87.40;;;38.58;;
52858;SDS011;38721;53.098;6.596;2022-11-15T06:33:21;89.47;;;36.60;;
52858;SDS011;38721;53.098;6.596;2022-11-15T06:35:47;100.93;;;36.25;;
52858;SDS011;38721;53.098;6.596;2022-11-15T06:38:12;91.88;;;36.75;;
52858;SDS011;38721;53.098;6.596;2022-11-15T06:40:38;89.35;;;36.28;;
52858;SDS011;38721;53.098;6.596;2022-11-15T06:43:04;94.45;;;37.38;;
52858;SDS011;38721;53.098;6.596;2022-11-15T06:45:31;102.85;;;37.90;;
52858;SDS011;38721;53.098;6.596;2022-11-15T06:47:57;91.53;;;38.05;;
52858;SDS011;38721;53.098;6.596;2022-11-15T06:50:23;95.05;;;38.97;;
52858;SDS011;38721;53.098;6.596;2022-11-15T06:52:50;85.00;;;34.00;;
52858;SDS011;38721;53.098;6.596;2022-11-15T06:55:15;97.40;;;36.15;;
52858;SDS011;38721;53.098;6.596;2022-11-15T06:57:48;82.53;;;34.50;;
52858;SDS011;38721;53.098;6.596;2022-11-15T07:00:15;83.93;;;34.80;;
52858;SDS011;38721;53.098;6.596;2022-11-15T07:02:43;84.88;;;33.90;;
52858;SDS011;38721;53.098;6.596;2022-11-15T07:05:09;83.43;;;34.45;;
52858;SDS011;38721;53.098;6.596;2022-11-15T07:07:37;82.40;;;32.92;;
52858;SDS011;38721;53.098;6.596;2022-11-15T07:10:06;73.35;;;34.42;;
52858;SDS011;38721;53.098;6.596;2022-11-15T07:12:32;78.43;;;33.53;;
52858;SDS011;38721;53.098;6.596;2022-11-15T07:14:58;76.47;;;31.77;;
52858;SDS011;38721;53.098;6.596;2022-11-15T07:17:24;71.65;;;31.13;;
52858;SDS011;38721;53.098;6.596;2022-11-15T07:19:50;74.38;;;32.10;;
52858;SDS011;38721;53.098;6.596;2022-11-15T07:22:15;75.70;;;33.35;;
52858;SDS011;38721;53.098;6.596;2022-11-15T07:24:41;78.40;;;32.45;;
52858;SDS011;38721;53.098;6.596;2022-11-15T07:27:07;74.00;;;33.58;;
52858;SDS011;38721;53.098;6.596;2022-11-15T07:29:34;74.32;;;33.33;;
52858;SDS011;38721;53.098;6.596;2022-11-15T07:32:00;75.78;;;32.53;;
52858;SDS011;38721;53.098;6.596;2022-11-15T07:34:26;81.00;;;35.10;;
52858;SDS011;38721;53.098;6.596;2022-11-15T07:36:52;69.90;;;31.70;;
52858;SDS011;38721;53.098;6.596;2022-11-15T07:39:17;73.20;;;31.17;;
52858;SDS011;38721;53.098;6.596;2022-11-15T07:41:43;70.38;;;30.85;;
52858;SDS011;38721;53.098;6.596;2022-11-15T07:44:09;69.40;;;30.88;;
52858;SDS011;38721;53.098;6.596;2022-11-15T07:46:38;60.80;;;28.67;;
52858;SDS011;38721;53.098;6.596;2022-11-15T07:49:03;63.55;;;28.48;;
52858;SDS011;38721;53.098;6.596;2022-11-15T07:51:29;58.28;;;29.05;;
52858;SDS011;38721;53.098;6.596;2022-11-15T07:53:55;58.55;;;29.27;;
52858;SDS011;38721;53.098;6.596;2022-11-15T07:56:20;67.57;;;30.08;;
52858;SDS011;38721;53.098;6.596;2022-11-15T07:58:46;60.78;;;28.17;;
52858;SDS011;38721;53.098;6.596;2022-11-15T08:01:12;52.92;;;28.08;;
52858;SDS011;38721;53.098;6.596;2022-11-15T08:03:38;53.38;;;26.83;;
52858;SDS011;38721;53.098;6.596;2022-11-15T08:06:04;59.63;;;28.10;;
52858;SDS011;38721;53.098;6.596;2022-11-15T08:08:30;53.10;;;27.42;;
52858;SDS011;38721;53.098;6.596;2022-11-15T08:10:57;51.72;;;28.35;;
52858;SDS011;38721;53.098;6.596;2022-11-15T08:13:23;54.22;;;27.80;;
52858;SDS011;38721;53.098;6.596;2022-11-15T08:15:49;54.58;;;26.73;;
52858;SDS011;38721;53.098;6.596;2022-11-15T08:18:15;48.88;;;26.73;;
52858;SDS011;38721;53.098;6.596;2022-11-15T08:20:42;48.03;;;26.73;;
52858;SDS011;38721;53.098;6.596;2022-11-15T08:23:09;44.25;;;26.23;;
52858;SDS011;38721;53.098;6.596;2022-11-15T08:25:36;46.65;;;25.98;;
52858;SDS011;38721;53.098;6.596;2022-11-15T08:28:04;46.95;;;25.60;;
52858;SDS011;38721;53.098;6.596;2022-11-15T08:30:34;42.35;;;25.13;;
52858;SDS011;38721;53.098;6.596;2022-11-15T08:33:09;43.25;;;22.98;;
52858;SDS011;38721;53.098;6.596;2022-11-15T08:35:36;44.70;;;24.15;;
52858;SDS011;38721;53.098;6.596;2022-11-15T08:38:05;44.72;;;23.42;;
52858;SDS011;38721;53.098;6.596;2022-11-15T08:40:30;41.45;;;23.48;;
52858;SDS011;38721;53.098;6.596;2022-11-15T08:42:56;40.83;;;23.40;;
52858;SDS011;38721;53.098;6.596;2022-11-15T08:45:23;35.97;;;23.17;;
52858;SDS011;38721;53.098;6.596;2022-11-15T08:47:49;38.47;;;21.98;;
52858;SDS011;38721;53.098;6.596;2022-11-15T08:50:15;41.28;;;22.98;;
52858;SDS011;38721;53.098;6.596;2022-11-15T08:52:41;35.03;;;21.80;;
52858;SDS011;38721;53.098;6.596;2022-11-15T08:55:10;35.83;;;21.65;;
52858;SDS011;38721;53.098;6.596;2022-11-15T08:57:38;34.35;;;21.00;;
52858;SDS011;38721;53.098;6.596;2022-11-15T09:00:04;34.50;;;20.15;;
52858;SDS011;38721;53.098;6.596;2022-11-15T09:02:30;32.15;;;20.52;;
52858;SDS011;38721;53.098;6.596;2022-11-15T09:04:56;32.08;;;19.98;;
52858;SDS011;38721;53.098;6.596;2022-11-15T09:07:25;35.33;;;19.75;;
52858;SDS011;38721;53.098;6.596;2022-11-15T09:09:51;33.28;;;20.60;;
52858;SDS011;38721;53.098;6.596;2022-11-15T09:12:19;30.98;;;19.23;;
52858;SDS011;38721;53.098;6.596;2022-11-15T09:14:45;30.52;;;20.63;;
52858;SDS011;38721;53.098;6.596;2022-11-15T09:17:10;30.25;;;19.75;;
52858;SDS011;38721;53.098;6.596;2022-11-15T09:19:45;32.20;;;18.75;;
52858;SDS011;38721;53.098;6.596;2022-11-15T09:22:10;31.95;;;20.40;;
52858;SDS011;38721;53.098;6.596;2022-11-15T09:24:36;30.80;;;19.33;;
52858;SDS011;38721;53.098;6.596;2022-11-15T09:27:02;29.27;;;19.40;;
52858;SDS011;38721;53.098;6.596;2022-11-15T09:29:28;27.67;;;18.40;;
52858;SDS011;38721;53.098;6.596;2022-11-15T09:31:53;28.38;;;18.73;;
52858;SDS011;38721;53.098;6.596;2022-11-15T09:34:22;31.00;;;19.35;;
52858;SDS011;38721;53.098;6.596;2022-11-15T09:36:47;28.75;;;19.15;;
52858;SDS011;38721;53.098;6.596;2022-11-15T09:39:13;27.27;;;17.52;;
52858;SDS011;38721;53.098;6.596;2022-11-15T09:41:50;28.55;;;18.98;;
52858;SDS011;38721;53.098;6.596;2022-11-15T09:49:40;25.48;;;17.80;;
52858;SDS011;38721;53.098;6.596;2022-11-15T09:52:06;25.65;;;17.65;;
52858;SDS011;38721;53.098;6.596;2022-11-15T09:54:38;25.67;;;18.02;;
52858;SDS011;38721;53.098;6.596;2022-11-15T09:57:14;25.55;;;18.05;;
52858;SDS011;38721;53.098;6.596;2022-11-15T10:02:41;24.00;;;16.77;;
52858;SDS011;38721;53.098;6.596;2022-11-15T10:05:23;24.50;;;17.00;;
52858;SDS011;38721;53.098;6.596;2022-11-15T10:10:41;25.00;;;17.67;;
52858;SDS011;38721;53.098;6.596;2022-11-15T10:13:16;28.23;;;17.35;;
52858;SDS011;38721;53.098;6.596;2022-11-15T10:15:47;29.33;;;18.02;;
52858;SDS011;38721;53.098;6.596;2022-11-15T10:23:27;24.15;;;16.27;;
52858;SDS011;38721;53.098;6.596;2022-11-15T10:25:55;23.27;;;16.70;;
52858;SDS011;38721;53.098;6.596;2022-11-15T10:28:30;24.27;;;15.55;;
52858;SDS011;38721;53.098;6.596;2022-11-15T10:30:59;21.58;;;15.23;;
52858;SDS011;38721;53.098;6.596;2022-11-15T10:41:14;19.92;;;14.77;;
52858;SDS011;38721;53.098;6.596;2022-11-15T10:43:41;22.55;;;15.73;;
52858;SDS011;38721;53.098;6.596;2022-11-15T10:46:20;23.80;;;15.45;;
52858;SDS011;38721;53.098;6.596;2022-11-15T10:48:48;23.70;;;15.77;;
52858;SDS011;38721;53.098;6.596;2022-11-15T10:51:21;22.70;;;15.95;;
52858;SDS011;38721;53.098;6.596;2022-11-15T10:53:53;26.15;;;16.60;;
52858;SDS011;38721;53.098;6.596;2022-11-15T10:56:21;23.65;;;16.23;;
52858;SDS011;38721;53.098;6.596;2022-11-15T10:58:56;25.33;;;16.98;;
52858;SDS011;38721;53.098;6.596;2022-11-15T11:01:23;25.48;;;16.70;;
52858;SDS011;38721;53.098;6.596;2022-11-15T11:04:07;25.73;;;17.10;;
52858;SDS011;38721;53.098;6.596;2022-11-15T11:12:00;20.15;;;14.98;;
52858;SDS011;38721;53.098;6.596;2022-11-15T11:17:03;23.73;;;15.43;;
52858;SDS011;38721;53.098;6.596;2022-11-15T11:28:34;18.35;;;13.57;;
52858;SDS011;38721;53.098;6.596;2022-11-15T11:37:07;16.33;;;12.13;;
52858;SDS011;38721;53.098;6.596;2022-11-15T11:40:05;14.38;;;11.52;;
52858;SDS011;38721;53.098;6.596;2022-11-15T11:51:49;13.68;;;9.93;;
52858;SDS011;38721;53.098;6.596;2022-11-15T11:57:13;10.77;;;8.60;;
52858;SDS011;38721;53.098;6.596;2022-11-15T12:00:20;10.75;;;8.52;;
52858;SDS011;38721;53.098;6.596;2022-11-15T12:08:21;9.57;;;7.65;;
52858;SDS011;38721;53.098;6.596;2022-11-15T12:10:48;10.02;;;6.80;;
52858;SDS011;38721;53.098;6.596;2022-11-15T12:13:33;11.40;;;7.00;;
52858;SDS011;38721;53.098;6.596;2022-11-15T12:16:11;9.02;;;6.07;;
52858;SDS011;38721;53.098;6.596;2022-11-15T12:18:44;8.23;;;6.30;;
52858;SDS011;38721;53.098;6.596;2022-11-15T12:21:16;12.07;;;5.88;;
52858;SDS011;38721;53.098;6.596;2022-11-15T12:23:48;7.93;;;5.30;;
52858;SDS011;38721;53.098;6.596;2022-11-15T12:26:18;6.72;;;5.05;;
52858;SDS011;38721;53.098;6.596;2022-11-15T12:31:35;7.75;;;5.20;;
52858;SDS011;38721;53.098;6.596;2022-11-15T12:34:13;9.50;;;5.57;;
52858;SDS011;38721;53.098;6.596;2022-11-15T12:36:44;7.78;;;5.70;;
52858;SDS011;38721;53.098;6.596;2022-11-15T12:39:11;7.07;;;5.35;;
52858;SDS011;38721;53.098;6.596;2022-11-15T12:41:39;8.77;;;5.63;;
52858;SDS011;38721;53.098;6.596;2022-11-15T13:02:27;8.02;;;5.30;;
52858;SDS011;38721;53.098;6.596;2022-11-15T13:12:52;7.22;;;4.25;;
52858;SDS011;38721;53.098;6.596;2022-11-15T13:18:58;6.82;;;4.28;;
52858;SDS011;38721;53.098;6.596;2022-11-15T13:21:18;6.13;;;4.05;;
52858;SDS011;38721;53.098;6.596;2022-11-15T13:24:04;7.47;;;4.22;;
52858;SDS011;38721;53.098;6.596;2022-11-15T13:26:34;5.55;;;3.78;;
52858;SDS011;38721;53.098;6.596;2022-11-15T13:29:04;7.07;;;4.10;;
52858;SDS011;38721;53.098;6.596;2022-11-15T13:31:43;6.15;;;3.78;;
52858;SDS011;38721;53.098;6.596;2022-11-15T13:34:18;6.30;;;3.90;;
52858;SDS011;38721;53.098;6.596;2022-11-15T13:36:53;5.30;;;3.85;;
52858;SDS011;38721;53.098;6.596;2022-11-15T13:39:29;5.10;;;3.40;;
52858;SDS011;38721;53.098;6.596;2022-11-15T13:41:55;7.65;;;3.80;;
52858;SDS011;38721;53.098;6.596;2022-11-15T13:44:23;6.30;;;3.72;;
52858;SDS011;38721;53.098;6.596;2022-11-15T13:49:52;5.65;;;3.70;;
52858;SDS011;38721;53.098;6.596;2022-11-15T13:52:18;5.90;;;3.42;;
52858;SDS011;38721;53.098;6.596;2022-11-15T13:54:57;6.50;;;3.80;;
52858;SDS011;38721;53.098;6.596;2022-11-15T13:57:46;6.55;;;3.40;;
52858;SDS011;38721;53.098;6.596;2022-11-15T14:00:35;5.95;;;3.25;;
52858;SDS011;38721;53.098;6.596;2022-11-15T14:03:27;4.97;;;3.10;;
52858;SDS011;38721;53.098;6.596;2022-11-15T14:08:37;4.97;;;3.05;;
52858;SDS011;38721;53.098;6.596;2022-11-15T14:11:15;4.65;;;3.20;;
52858;SDS011;38721;53.098;6.596;2022-11-15T14:19:01;4.20;;;3.20;;
52858;SDS011;38721;53.098;6.596;2022-11-15T14:21:27;8.52;;;3.17;;
52858;SDS011;38721;53.098;6.596;2022-11-15T14:24:13;5.07;;;2.83;;
52858;SDS011;38721;53.098;6.596;2022-11-15T14:26:39;4.35;;;2.58;;
52858;SDS011;38721;53.098;6.596;2022-11-15T14:29:25;5.10;;;2.28;;
52858;SDS011;38721;53.098;6.596;2022-11-15T14:31:52;4.22;;;2.72;;
52858;SDS011;38721;53.098;6.596;2022-11-15T14:34:19;5.05;;;2.42;;
52858;SDS011;38721;53.098;6.596;2022-11-15T14:36:47;4.72;;;2.95;;
52858;SDS011;38721;53.098;6.596;2022-11-15T14:39:13;3.97;;;2.40;;
52858;SDS011;38721;53.098;6.596;2022-11-15T14:41:38;3.55;;;2.28;;
52858;SDS011;38721;53.098;6.596;2022-11-15T14:44:05;4.18;;;2.25;;
52858;SDS011;38721;53.098;6.596;2022-11-15T14:46:31;4.60;;;2.20;;
52858;SDS011;38721;53.098;6.596;2022-11-15T14:48:57;3.75;;;2.20;;
52858;SDS011;38721;53.098;6.596;2022-11-15T14:51:22;13.95;;;2.67;;
52858;SDS011;38721;53.098;6.596;2022-11-15T14:53:48;4.00;;;2.38;;
52858;SDS011;38721;53.098;6.596;2022-11-15T14:56:14;7.07;;;2.13;;
52858;SDS011;38721;53.098;6.596;2022-11-15T14:58:41;4.20;;;2.20;;
52858;SDS011;38721;53.098;6.596;2022-11-15T15:01:16;4.10;;;2.28;;
52858;SDS011;38721;53.098;6.596;2022-11-15T15:03:53;3.72;;;2.22;;
52858;SDS011;38721;53.098;6.596;2022-11-15T15:06:24;5.43;;;2.42;;
52858;SDS011;38721;53.098;6.596;2022-11-15T15:08:51;4.18;;;2.25;;
52858;SDS011;38721;53.098;6.596;2022-11-15T15:11:19;4.97;;;2.40;;
52858;SDS011;38721;53.098;6.596;2022-11-15T15:13:47;2.63;;;1.98;;
52858;SDS011;38721;53.098;6.596;2022-11-15T15:16:13;9.38;;;2.38;;
52858;SDS011;38721;53.098;6.596;2022-11-15T15:18:39;5.40;;;2.15;;
52858;SDS011;38721;53.098;6.596;2022-11-15T15:21:11;4.82;;;2.40;;
52858;SDS011;38721;53.098;6.596;2022-11-15T15:23:46;6.95;;;2.75;;
52858;SDS011;38721;53.098;6.596;2022-11-15T15:26:15;4.65;;;2.88;;
52858;SDS011;38721;53.098;6.596;2022-11-15T15:28:40;3.63;;;2.58;;
52858;SDS011;38721;53.098;6.596;2022-11-15T15:31:09;4.20;;;3.10;;
52858;SDS011;38721;53.098;6.596;2022-11-15T15:33:35;6.22;;;3.92;;
52858;SDS011;38721;53.098;6.596;2022-11-15T15:36:02;4.55;;;3.90;;
52858;SDS011;38721;53.098;6.596;2022-11-15T15:38:28;6.53;;;3.70;;
52858;SDS011;38721;53.098;6.596;2022-11-15T15:40:54;5.53;;;3.72;;
52858;SDS011;38721;53.098;6.596;2022-11-15T15:43:38;6.28;;;3.90;;
52858;SDS011;38721;53.098;6.596;2022-11-15T15:46:10;5.38;;;4.53;;
52858;SDS011;38721;53.098;6.596;2022-11-15T15:48:40;5.53;;;4.30;;
52858;SDS011;38721;53.098;6.596;2022-11-15T15:51:12;7.18;;;4.47;;
52858;SDS011;38721;53.098;6.596;2022-11-15T15:53:38;5.70;;;4.43;;
52858;SDS011;38721;53.098;6.596;2022-11-15T15:56:04;5.25;;;4.47;;
52858;SDS011;38721;53.098;6.596;2022-11-15T15:58:32;5.90;;;4.80;;
52858;SDS011;38721;53.098;6.596;2022-11-15T16:00:59;5.68;;;4.90;;
52858;SDS011;38721;53.098;6.596;2022-11-15T16:03:24;7.07;;;5.00;;
52858;SDS011;38721;53.098;6.596;2022-11-15T16:05:50;6.47;;;5.43;;
52858;SDS011;38721;53.098;6.596;2022-11-15T16:08:20;6.72;;;5.15;;
52858;SDS011;38721;53.098;6.596;2022-11-15T16:10:47;5.68;;;5.10;;
52858;SDS011;38721;53.098;6.596;2022-11-15T16:13:13;6.47;;;5.63;;
52858;SDS011;38721;53.098;6.596;2022-11-15T16:15:39;7.03;;;5.30;;
52858;SDS011;38721;53.098;6.596;2022-11-15T16:18:05;6.30;;;5.40;;
52858;SDS011;38721;53.098;6.596;2022-11-15T16:20:46;6.93;;;5.85;;
52858;SDS011;38721;53.098;6.596;2022-11-15T16:23:15;6.97;;;6.00;;
52858;SDS011;38721;53.098;6.596;2022-11-15T16:25:50;6.65;;;5.95;;
52858;SDS011;38721;53.098;6.596;2022-11-15T16:28:18;6.72;;;5.82;;
52858;SDS011;38721;53.098;6.596;2022-11-15T16:30:46;9.20;;;6.00;;
52858;SDS011;38721;53.098;6.596;2022-11-15T16:33:12;5.85;;;5.28;;
52858;SDS011;38721;53.098;6.596;2022-11-15T16:35:38;7.30;;;5.75;;
52858;SDS011;38721;53.098;6.596;2022-11-15T16:38:04;5.65;;;4.88;;
52858;SDS011;38721;53.098;6.596;2022-11-15T16:40:30;5.82;;;4.90;;
52858;SDS011;38721;53.098;6.596;2022-11-15T16:42:57;5.60;;;4.78;;
52858;SDS011;38721;53.098;6.596;2022-11-15T16:48:42;5.65;;;4.45;;
52858;SDS011;38721;53.098;6.596;2022-11-15T16:51:07;5.35;;;4.47;;
52858;SDS011;38721;53.098;6.596;2022-11-15T16:53:34;6.10;;;4.18;;
52858;SDS011;38721;53.098;6.596;2022-11-15T16:56:00;4.43;;;4.03;;
52858;SDS011;38721;53.098;6.596;2022-11-15T16:58:26;4.40;;;3.90;;
52858;SDS011;38721;53.098;6.596;2022-11-15T17:00:52;6.43;;;4.13;;
52858;SDS011;38721;53.098;6.596;2022-11-15T17:03:19;5.13;;;3.65;;
52858;SDS011;38721;53.098;6.596;2022-11-15T17:05:45;4.63;;;3.70;;
52858;SDS011;38721;53.098;6.596;2022-11-15T17:08:11;5.25;;;3.45;;
52858;SDS011;38721;53.098;6.596;2022-11-15T17:10:38;4.82;;;3.25;;
52858;SDS011;38721;53.098;6.596;2022-11-15T17:13:11;3.65;;;2.97;;